createdAt,value
2023-04-17T00:00:13.215Z,100.00
2023-04-17T00:02:41.194Z,100.00
2023-04-17T00:05:10.149Z,100.00
2023-04-17T00:07:38.802Z,100.00
2023-04-17T00:10:09.035Z,100.00
2023-04-17T00:12:36.751Z,100.00
2023-04-17T00:15:06.603Z,100.00
2023-04-17T00:17:34.199Z,100.00
2023-04-17T00:20:01.867Z,100.00
2023-04-17T00:22:29.482Z,100.00
2023-04-17T00:24:58.133Z,100.00
2023-04-17T00:27:26.344Z,100.00
2023-04-17T00:29:53.913Z,100.00
2023-04-17T00:32:22.807Z,100.00
2023-04-17T00:34:51.492Z,100.00
2023-04-17T00:37:20.260Z,100.00
2023-04-17T00:39:47.829Z,100.00
2023-04-17T00:42:15.407Z,100.00
2023-04-17T00:44:43.001Z,100.00
2023-04-17T00:47:10.717Z,100.00
2023-04-17T00:49:39.678Z,100.00
2023-04-17T00:52:07.582Z,100.00
2023-04-17T00:54:36.421Z,100.00
2023-04-17T00:57:04.415Z,100.00
2023-04-17T00:59:33.397Z,100.00
2023-04-17T01:02:01.164Z,100.00
2023-04-17T01:04:28.830Z,100.00
2023-04-17T01:06:59.457Z,100.00
2023-04-17T01:09:27.717Z,100.00
2023-04-17T01:11:55.675Z,100.00
2023-04-17T01:14:23.254Z,100.00
2023-04-17T01:16:51.080Z,100.00
2023-04-17T01:19:19.507Z,100.00
2023-04-17T01:21:47.122Z,100.00
2023-04-17T01:24:16.221Z,100.00
2023-04-17T01:26:43.889Z,100.00
2023-04-17T01:29:12.073Z,100.00
2023-04-17T01:31:40.290Z,100.00
2023-04-17T01:34:07.887Z,100.00
2023-04-17T01:36:35.497Z,100.00
2023-04-17T01:39:04.116Z,100.00
2023-04-17T01:41:33.032Z,100.00
2023-04-17T01:44:00.700Z,100.00
2023-04-17T01:46:28.312Z,100.00
2023-04-17T01:48:56.173Z,100.00
2023-04-17T01:51:23.765Z,100.00
2023-04-17T01:53:51.460Z,100.00
2023-04-17T01:56:19.032Z,100.00
2023-04-17T01:58:48.015Z,100.00
2023-04-17T02:01:15.694Z,100.00
2023-04-17T02:03:43.428Z,100.00
2023-04-17T02:06:11.572Z,100.00
2023-04-17T02:08:39.252Z,100.00
2023-04-17T02:11:06.960Z,100.00
2023-04-17T02:13:35.838Z,100.00
2023-04-17T02:16:05.776Z,100.00
2023-04-17T02:18:35.283Z,100.00
2023-04-17T02:21:02.933Z,100.00
2023-04-17T02:23:30.510Z,100.00
2023-04-17T02:25:58.348Z,100.00
2023-04-17T02:28:26.168Z,100.00
2023-04-17T02:30:53.842Z,100.00
2023-04-17T02:33:23.100Z,100.00
2023-04-17T02:35:51.428Z,100.00
2023-04-17T02:38:23.901Z,100.00
2023-04-17T02:40:51.523Z,100.00
2023-04-17T02:43:19.463Z,100.00
2023-04-17T02:45:47.081Z,100.00
2023-04-17T02:48:14.883Z,100.00
2023-04-17T02:50:44.086Z,100.00
2023-04-17T02:53:16.754Z,100.00
2023-04-17T02:55:44.261Z,100.00
2023-04-17T02:58:13.297Z,100.00
2023-04-17T03:00:41.156Z,100.00
2023-04-17T03:03:13.800Z,100.00
2023-04-17T03:05:41.615Z,100.00
2023-04-17T03:08:11.700Z,100.00
2023-04-17T03:10:45.838Z,100.00
2023-04-17T03:13:13.589Z,100.00
2023-04-17T03:15:41.276Z,100.00
2023-04-17T03:18:08.860Z,100.00
2023-04-17T03:20:36.541Z,100.00
2023-04-17T03:23:04.146Z,100.00
2023-04-17T03:25:33.142Z,100.00
2023-04-17T03:28:01.660Z,100.00
2023-04-17T03:30:32.884Z,100.00
2023-04-17T03:33:04.992Z,100.00
2023-04-17T03:35:32.924Z,100.00
2023-04-17T03:38:02.964Z,100.00
2023-04-17T03:40:31.979Z,100.00
2023-04-17T03:43:03.031Z,100.00
2023-04-17T03:45:32.089Z,100.00
2023-04-17T03:47:59.829Z,100.00
2023-04-17T03:50:28.235Z,100.00
2023-04-17T03:52:57.703Z,100.00
2023-04-17T03:55:27.933Z,100.00
2023-04-17T03:57:56.106Z,100.00
2023-04-17T04:00:27.226Z,100.00
2023-04-17T04:03:00.573Z,100.00
2023-04-17T04:05:34.371Z,100.00
2023-04-17T04:08:04.298Z,100.00
2023-04-17T04:10:38.878Z,100.00
2023-04-17T04:13:06.840Z,100.00
2023-04-17T04:15:39.063Z,100.00
2023-04-17T04:18:07.250Z,100.00
2023-04-17T04:20:35.437Z,100.00
2023-04-17T04:23:16.575Z,100.00
2023-04-17T04:25:45.896Z,100.00
2023-04-17T04:28:23.695Z,100.00
2023-04-17T04:30:53.467Z,100.00
2023-04-17T04:33:23.135Z,100.00
2023-04-17T04:35:55.950Z,100.00
2023-04-17T04:38:29.807Z,100.00
2023-04-17T04:41:06.124Z,100.00
2023-04-17T04:43:34.726Z,100.00
2023-04-17T04:46:05.450Z,100.00
2023-04-17T04:48:37.052Z,100.00
2023-04-17T04:51:04.812Z,100.00
2023-04-17T04:53:35.869Z,100.00
2023-04-17T04:56:03.523Z,100.00
2023-04-17T04:58:32.453Z,100.00
2023-04-17T05:01:04.066Z,100.00
2023-04-17T05:03:38.977Z,100.00
2023-04-17T05:06:09.375Z,100.00
2023-04-17T05:08:44.969Z,100.00
2023-04-17T05:11:15.292Z,100.00
2023-04-17T05:13:43.373Z,100.00
2023-04-17T05:16:23.329Z,100.00
2023-04-17T05:18:52.599Z,100.00
2023-04-17T05:21:30.546Z,100.00
2023-04-17T05:23:58.894Z,100.00
2023-04-17T05:26:28.198Z,100.00
2023-04-17T05:28:55.982Z,100.00
2023-04-17T05:31:27.928Z,100.00
2023-04-17T05:33:58.074Z,100.00
2023-04-17T05:36:27.024Z,100.00
2023-04-17T05:38:58.505Z,100.00
2023-04-17T05:41:27.913Z,100.00
2023-04-17T05:43:55.497Z,100.00
2023-04-17T05:46:23.245Z,100.00
2023-04-17T05:48:51.144Z,100.00
2023-04-17T05:51:20.123Z,100.00
2023-04-17T05:53:49.049Z,100.00
2023-04-17T05:56:16.669Z,100.00
2023-04-17T05:58:44.532Z,100.00
2023-04-17T06:01:18.252Z,100.00
2023-04-17T06:03:46.118Z,100.00
2023-04-17T06:06:20.890Z,100.00
2023-04-17T06:08:48.784Z,100.00
2023-04-17T06:11:17.124Z,100.00
2023-04-17T06:13:45.578Z,100.00
2023-04-17T06:16:13.366Z,100.00
2023-04-17T06:18:41.458Z,100.00
2023-04-17T06:21:09.375Z,100.00
2023-04-17T06:23:38.692Z,100.00
2023-04-17T06:26:06.647Z,100.00
2023-04-17T06:28:35.254Z,100.00
2023-04-17T06:31:03.385Z,100.00
2023-04-17T06:33:31.035Z,100.00
2023-04-17T06:35:58.587Z,100.00
2023-04-17T06:38:50.464Z,100.00
2023-04-17T06:41:21.145Z,100.00
2023-04-17T06:43:48.723Z,100.00
2023-04-17T06:46:16.460Z,100.00
2023-04-17T06:48:44.035Z,100.00
2023-04-17T06:51:11.564Z,100.00
2023-04-17T06:53:39.134Z,100.00
2023-04-17T06:56:08.282Z,100.00
2023-04-17T06:58:42.275Z,100.00
2023-04-17T07:01:09.829Z,98.85
2023-04-17T07:03:37.851Z,98.82
2023-04-17T07:06:05.818Z,97.40
2023-04-17T07:08:33.624Z,96.43
2023-04-17T07:11:03.339Z,95.83
2023-04-17T07:13:33.288Z,95.03
2023-04-17T07:16:01.256Z,95.98
2023-04-17T07:18:30.175Z,96.02
2023-04-17T07:20:57.857Z,95.80
2023-04-17T07:23:25.703Z,96.04
2023-04-17T07:25:53.312Z,96.27
2023-04-17T07:28:21.243Z,96.20
2023-04-17T07:30:50.120Z,95.45
2023-04-17T07:33:17.669Z,94.26
2023-04-17T07:35:45.232Z,93.04
2023-04-17T07:38:12.890Z,93.63
2023-04-17T07:40:41.149Z,92.89
2023-04-17T07:43:08.738Z,92.65
2023-04-17T07:45:38.097Z,91.81
2023-04-17T07:48:08.269Z,91.65
2023-04-17T07:50:35.930Z,92.79
2023-04-17T07:53:03.559Z,91.55
2023-04-17T07:55:31.110Z,91.76
2023-04-17T07:58:01.532Z,91.63
2023-04-17T08:00:29.326Z,91.99
2023-04-17T08:02:58.149Z,91.81
2023-04-17T08:05:27.338Z,92.70
2023-04-17T08:07:54.971Z,92.48
2023-04-17T08:10:22.540Z,92.69
2023-04-17T08:12:50.102Z,92.83
2023-04-17T08:15:17.674Z,92.02
2023-04-17T08:17:45.313Z,92.08
2023-04-17T08:20:13.557Z,91.58
2023-04-17T08:22:43.693Z,91.20
2023-04-17T08:25:11.968Z,88.87
2023-04-17T08:27:41.335Z,87.80
2023-04-17T08:30:13.297Z,87.96
2023-04-17T08:32:43.576Z,89.58
2023-04-17T08:35:12.357Z,89.33
2023-04-17T08:37:39.984Z,87.76
2023-04-17T08:40:12.098Z,86.66
2023-04-17T08:42:41.455Z,86.34
2023-04-17T08:45:10.888Z,86.79
2023-04-17T08:47:40.200Z,88.10
2023-04-17T08:50:09.912Z,86.21
2023-04-17T08:52:41.169Z,85.27
2023-04-17T08:55:11.541Z,85.34
2023-04-17T08:57:54.919Z,83.94
2023-04-17T09:00:29.402Z,82.62
2023-04-17T09:02:59.375Z,82.35
2023-04-17T09:05:30.126Z,81.40
2023-04-17T09:08:08.959Z,81.02
2023-04-17T09:10:39.538Z,80.06
2023-04-17T09:13:08.459Z,78.80
2023-04-17T09:15:37.502Z,78.48
2023-04-17T09:18:05.244Z,79.50
2023-04-17T09:20:32.901Z,77.58
2023-04-17T09:23:03.224Z,77.95
2023-04-17T09:25:31.162Z,78.10
2023-04-17T09:28:12.624Z,79.17
2023-04-17T09:30:40.996Z,83.17
2023-04-17T09:33:09.816Z,81.51
2023-04-17T09:35:40.203Z,76.55
2023-04-17T09:38:08.320Z,81.95
2023-04-17T09:40:41.020Z,76.55
2023-04-17T09:43:11.657Z,76.44
2023-04-17T09:45:42.718Z,77.67
2023-04-17T09:48:11.934Z,77.92
2023-04-17T09:50:40.041Z,78.07
2023-04-17T09:53:08.911Z,79.38
2023-04-17T09:55:37.579Z,77.38
2023-04-17T09:58:07.219Z,77.83
2023-04-17T10:00:37.739Z,77.42
2023-04-17T10:03:05.866Z,76.87
2023-04-17T10:05:33.682Z,75.85
2023-04-17T10:08:01.659Z,76.72
2023-04-17T10:10:33.646Z,78.45
2023-04-17T10:13:03.596Z,77.53
2023-04-17T10:15:31.967Z,74.60
2023-04-17T10:18:22.722Z,73.75
2023-04-17T10:20:50.879Z,73.59
2023-04-17T10:23:34.872Z,69.72
2023-04-17T10:26:45.673Z,69.45
2023-04-17T10:29:13.694Z,69.35
2023-04-17T10:32:15.606Z,70.51
2023-04-17T10:34:44.675Z,71.41
2023-04-17T10:37:15.160Z,69.91
2023-04-17T10:39:54.744Z,70.04
2023-04-17T10:42:23.687Z,69.78
2023-04-17T10:44:53.057Z,70.60
2023-04-17T10:47:22.034Z,71.15
2023-04-17T10:49:55.088Z,71.59
2023-04-17T10:52:39.960Z,72.23
2023-04-17T10:55:09.779Z,72.38
2023-04-17T10:57:54.411Z,72.01
2023-04-17T11:00:29.289Z,72.46
2023-04-17T11:02:57.276Z,71.53
2023-04-17T11:05:26.603Z,71.00
2023-04-17T11:07:54.238Z,72.33
2023-04-17T11:10:22.906Z,72.90
2023-04-17T11:12:53.181Z,72.96
2023-04-17T11:15:27.476Z,70.94
2023-04-17T11:17:55.232Z,72.75
2023-04-17T11:20:24.507Z,73.26
2023-04-17T11:22:53.683Z,74.01
2023-04-17T11:25:23.112Z,73.64
2023-04-17T11:27:56.311Z,73.52
2023-04-17T11:30:31.830Z,74.19
2023-04-17T11:33:00.883Z,73.54
2023-04-17T11:35:29.939Z,71.73
2023-04-17T11:38:11.340Z,71.98
2023-04-17T11:40:46.879Z,72.41
2023-04-17T11:43:14.603Z,71.70
2023-04-17T11:45:43.761Z,71.32
2023-04-17T11:48:12.759Z,70.93
2023-04-17T11:50:42.131Z,69.52
2023-04-17T11:53:14.455Z,70.00
2023-04-17T11:55:42.070Z,70.40
2023-04-17T11:58:11.274Z,68.38
2023-04-17T12:00:40.603Z,67.33
2023-04-17T12:03:34.562Z,64.43
2023-04-17T12:06:04.240Z,64.94
2023-04-17T12:08:43.435Z,65.18
2023-04-17T12:11:18.769Z,65.40
2023-04-17T12:13:46.320Z,63.85
2023-04-17T12:16:13.951Z,64.06
2023-04-17T12:18:41.560Z,65.08
2023-04-17T12:21:09.141Z,64.44
2023-04-17T12:23:38.004Z,65.63
2023-04-17T12:26:05.687Z,64.72
2023-04-17T12:28:33.326Z,64.19
2023-04-17T12:31:01.057Z,64.76
2023-04-17T12:33:28.705Z,64.37
2023-04-17T12:35:56.317Z,64.20
2023-04-17T12:38:24.234Z,64.69
2023-04-17T12:40:53.159Z,63.44
2023-04-17T12:43:20.764Z,62.51
2023-04-17T12:45:48.418Z,60.64
2023-04-17T12:48:16.552Z,60.74
2023-04-17T12:50:44.295Z,60.48
2023-04-17T12:53:13.251Z,61.31
2023-04-17T12:55:41.826Z,60.68
2023-04-17T12:58:11.439Z,60.29
2023-04-17T13:00:40.386Z,59.79
2023-04-17T13:03:08.225Z,59.74
2023-04-17T13:05:36.569Z,59.52
2023-04-17T13:08:04.235Z,59.54
2023-04-17T13:10:31.836Z,60.22
2023-04-17T13:12:59.535Z,61.52
2023-04-17T13:15:28.636Z,62.73
2023-04-17T13:17:56.875Z,62.60
2023-04-17T13:20:24.665Z,63.58
2023-04-17T13:22:52.259Z,62.52
2023-04-17T13:25:19.900Z,62.34
2023-04-17T13:27:47.545Z,63.08
2023-04-17T13:30:15.728Z,63.60
2023-04-17T13:32:44.848Z,62.98
2023-04-17T13:35:13.369Z,63.65
2023-04-17T13:37:41.148Z,65.28
2023-04-17T13:40:10.642Z,63.18
2023-04-17T13:42:38.536Z,63.88
2023-04-17T13:45:07.315Z,63.86
2023-04-17T13:47:35.014Z,64.20
2023-04-17T13:50:04.637Z,63.91
2023-04-17T13:52:32.218Z,63.88
2023-04-17T13:54:59.853Z,63.17
2023-04-17T13:57:27.722Z,64.43
2023-04-17T13:59:55.478Z,64.32
2023-04-17T14:02:23.217Z,65.24
2023-04-17T14:04:51.076Z,64.52
2023-04-17T14:07:20.254Z,64.83
2023-04-17T14:09:47.818Z,64.58
2023-04-17T14:12:19.686Z,65.35
2023-04-17T14:14:47.282Z,65.15
2023-04-17T14:17:14.916Z,66.40
2023-04-17T14:19:42.469Z,66.84
2023-04-17T14:22:10.187Z,67.20
2023-04-17T14:24:39.091Z,66.60
2023-04-17T14:27:06.635Z,67.26
2023-04-17T14:29:34.174Z,68.66
2023-04-17T14:32:01.708Z,68.21
2023-04-17T14:34:29.495Z,68.84
2023-04-17T14:36:58.308Z,68.23
2023-04-17T14:39:25.966Z,67.87
2023-04-17T14:41:55.016Z,67.81
2023-04-17T14:44:22.573Z,73.06
2023-04-17T14:46:50.470Z,71.44
2023-04-17T14:49:20.498Z,70.10
2023-04-17T14:51:48.108Z,69.37
2023-04-17T14:54:15.854Z,67.43
2023-04-17T14:56:43.447Z,65.03
2023-04-17T14:59:12.508Z,67.83
2023-04-17T15:01:40.236Z,67.63
2023-04-17T15:04:07.918Z,68.01
2023-04-17T15:06:36.234Z,67.41
2023-04-17T15:09:04.061Z,67.61
2023-04-17T15:11:31.624Z,65.44
2023-04-17T15:13:59.173Z,65.42
2023-04-17T15:16:28.224Z,63.70
2023-04-17T15:18:55.851Z,64.59
2023-04-17T15:21:23.392Z,64.81
2023-04-17T15:23:51.166Z,65.22
2023-04-17T15:26:19.922Z,64.52
2023-04-17T15:28:47.806Z,63.95
2023-04-17T15:31:15.606Z,62.55
2023-04-17T15:33:45.899Z,66.15
2023-04-17T15:36:13.505Z,65.58
2023-04-17T15:38:41.075Z,62.60
2023-04-17T15:41:10.163Z,64.31
2023-04-17T15:43:38.821Z,64.97
2023-04-17T15:46:07.315Z,63.99
2023-04-17T15:48:34.979Z,64.00
2023-04-17T15:51:04.905Z,64.93
2023-04-17T15:53:33.150Z,64.33
2023-04-17T15:56:00.778Z,64.81
2023-04-17T15:58:28.412Z,64.49
2023-04-17T16:00:56.071Z,64.83
2023-04-17T16:03:23.825Z,66.28
2023-04-17T16:05:54.106Z,66.70
2023-04-17T16:08:23.104Z,67.99
2023-04-17T16:10:50.650Z,69.39
2023-04-17T16:13:18.486Z,71.62
2023-04-17T16:15:46.346Z,71.79
2023-04-17T16:18:13.965Z,73.25
2023-04-17T16:20:41.583Z,75.46
2023-04-17T16:23:09.237Z,76.01
2023-04-17T16:25:38.299Z,76.50
2023-04-17T16:28:05.895Z,77.35
2023-04-17T16:30:33.553Z,78.29
2023-04-17T16:33:01.137Z,78.47
2023-04-17T16:35:30.019Z,79.42
2023-04-17T16:37:57.646Z,80.79
2023-04-17T16:40:26.508Z,80.09
2023-04-17T16:42:55.473Z,79.85
2023-04-17T16:45:23.105Z,81.12
2023-04-17T16:47:50.892Z,79.80
2023-04-17T16:50:18.558Z,80.09
2023-04-17T16:52:46.338Z,80.23
2023-04-17T16:55:14.304Z,80.39
2023-04-17T16:57:43.611Z,80.71
2023-04-17T17:00:13.786Z,79.94
2023-04-17T17:02:41.577Z,79.98
2023-04-17T17:05:10.274Z,79.16
2023-04-17T17:07:37.861Z,80.00
2023-04-17T17:10:06.790Z,80.70
2023-04-17T17:12:34.401Z,81.07
2023-04-17T17:15:03.470Z,81.51
2023-04-17T17:17:32.851Z,82.28
2023-04-17T17:20:00.953Z,82.91
2023-04-17T17:22:28.534Z,82.63
2023-04-17T17:24:56.167Z,82.31
2023-04-17T17:27:23.839Z,82.71
2023-04-17T17:29:51.421Z,82.63
2023-04-17T17:32:19.216Z,83.02
2023-04-17T17:34:48.382Z,82.89
2023-04-17T17:37:16.059Z,84.79
2023-04-17T17:39:43.716Z,84.80
2023-04-17T17:42:11.374Z,84.90
2023-04-17T17:44:39.013Z,84.71
2023-04-17T17:47:08.035Z,85.26
2023-04-17T17:49:35.861Z,87.90
2023-04-17T17:52:06.194Z,89.02
2023-04-17T17:54:36.596Z,88.78
2023-04-17T17:57:04.617Z,88.66
2023-04-17T17:59:32.172Z,79.06
2023-04-17T18:02:02.002Z,79.81
2023-04-17T18:04:30.104Z,79.13
2023-04-17T18:06:57.712Z,76.98
2023-04-17T18:09:26.647Z,76.11
2023-04-17T18:16:00.654Z,76.90
2023-04-17T18:18:28.255Z,75.26
2023-04-17T18:20:55.775Z,76.15
2023-04-17T18:23:23.638Z,75.88
2023-04-17T18:25:58.831Z,75.68
2023-04-17T18:28:26.481Z,75.83
2023-04-17T18:30:54.317Z,75.64
2023-04-17T18:33:21.971Z,74.99
2023-04-17T18:35:50.182Z,74.29
2023-04-17T18:38:17.790Z,74.69
2023-04-17T18:40:45.420Z,74.87
2023-04-17T18:43:14.407Z,75.15
2023-04-17T18:45:42.062Z,76.16
2023-04-17T18:48:09.802Z,75.63
2023-04-17T18:50:38.359Z,76.26
2023-04-17T18:53:05.918Z,75.94
2023-04-17T18:55:35.030Z,75.59
2023-04-17T18:58:02.656Z,76.03
2023-04-17T19:00:31.737Z,75.56
2023-04-17T19:02:59.662Z,76.36
2023-04-17T19:05:27.295Z,76.93
2023-04-17T19:07:54.956Z,77.31
2023-04-17T19:10:22.994Z,77.00
2023-04-17T19:12:50.645Z,76.21
2023-04-17T19:15:18.635Z,77.68
2023-04-17T19:17:47.542Z,79.27
2023-04-17T19:20:16.525Z,80.64
2023-04-17T19:22:44.078Z,81.15
2023-04-17T19:25:11.900Z,81.91
2023-04-17T19:27:39.430Z,82.73
2023-04-17T19:30:09.530Z,83.54
2023-04-17T19:32:37.183Z,82.68
2023-04-17T19:35:07.535Z,81.53
2023-04-17T19:37:35.331Z,80.38
2023-04-17T19:40:08.648Z,80.17
2023-04-17T19:42:42.187Z,78.47
2023-04-17T19:45:10.694Z,79.09
2023-04-17T19:47:40.759Z,78.09
2023-04-17T19:50:12.129Z,78.83
2023-04-17T19:52:40.009Z,78.53
2023-04-17T19:55:09.194Z,77.61
2023-04-17T19:57:36.931Z,79.20
2023-04-17T20:00:05.501Z,78.08
2023-04-17T20:02:40.140Z,77.47
2023-04-17T20:05:10.351Z,77.49
2023-04-17T20:07:37.948Z,76.86
2023-04-17T20:10:06.339Z,76.75
2023-04-17T20:12:34.289Z,76.19
2023-04-17T20:15:01.920Z,76.71
2023-04-17T20:17:29.854Z,76.16
2023-04-17T20:19:57.773Z,77.05
2023-04-17T20:22:27.568Z,76.90
2023-04-17T20:24:55.113Z,77.47
2023-04-17T20:27:22.940Z,78.56
2023-04-17T20:29:50.780Z,78.60
2023-04-17T20:32:20.225Z,77.64
2023-04-17T20:34:47.834Z,78.32
2023-04-17T20:37:15.809Z,77.79
2023-04-17T20:39:44.741Z,78.58
2023-04-17T20:42:12.265Z,79.25
2023-04-17T20:44:39.893Z,79.79
2023-04-17T20:47:07.488Z,80.08
2023-04-17T20:49:35.151Z,80.15
2023-04-17T20:52:03.064Z,81.73
2023-04-17T20:54:30.853Z,82.49
2023-04-17T20:56:59.733Z,81.68
2023-04-17T20:59:27.282Z,85.97
2023-04-17T21:01:54.884Z,84.20
2023-04-17T21:04:22.711Z,83.01
2023-04-17T21:06:50.394Z,82.42
2023-04-17T21:09:18.196Z,82.29
2023-04-17T21:11:45.832Z,83.30
2023-04-17T21:14:15.292Z,84.13
2023-04-17T21:16:44.334Z,84.50
2023-04-17T21:19:12.200Z,85.24
2023-04-17T21:21:39.844Z,85.79
2023-04-17T21:24:07.919Z,86.46
2023-04-17T21:26:36.061Z,86.65
2023-04-17T21:29:03.698Z,87.03
2023-04-17T21:31:32.777Z,87.63
2023-04-17T21:34:01.187Z,87.39
2023-04-17T21:36:29.112Z,87.52
2023-04-17T21:38:56.671Z,87.64
2023-04-17T21:41:24.251Z,88.99
2023-04-17T21:43:51.780Z,88.81
2023-04-17T21:46:19.350Z,88.90
2023-04-17T21:48:48.298Z,89.02
2023-04-17T21:51:16.002Z,88.96
2023-04-17T21:53:44.626Z,89.68
2023-04-17T21:56:12.221Z,89.43
2023-04-17T21:58:39.772Z,90.17
2023-04-17T22:01:07.847Z,90.59
2023-04-17T22:03:36.093Z,90.13
2023-04-17T22:06:06.007Z,89.97
2023-04-17T22:08:33.947Z,90.44
2023-04-17T22:11:01.491Z,91.46
2023-04-17T22:13:29.155Z,91.92
2023-04-17T22:15:58.419Z,91.78
2023-04-17T22:18:26.641Z,91.75
2023-04-17T22:20:54.194Z,91.46
2023-04-17T22:23:23.093Z,92.26
2023-04-17T22:25:50.644Z,92.15
2023-04-17T22:28:18.304Z,92.11
2023-04-17T22:30:45.888Z,92.25
2023-04-17T22:33:13.396Z,92.30
2023-04-17T22:35:40.939Z,91.90
2023-04-17T22:38:08.515Z,92.60
2023-04-17T22:40:37.572Z,92.67
2023-04-17T22:43:05.702Z,93.20
2023-04-17T22:45:33.449Z,93.14
2023-04-17T22:48:01.034Z,93.58
2023-04-17T22:50:30.497Z,93.24
2023-04-17T22:52:58.121Z,93.29
2023-04-17T22:55:25.646Z,93.38
2023-04-17T22:57:54.617Z,93.66
2023-04-17T23:00:22.250Z,93.91
2023-04-17T23:02:49.863Z,94.25
2023-04-17T23:05:17.728Z,94.33
2023-04-17T23:07:45.466Z,94.63
2023-04-17T23:10:13.046Z,94.82
2023-04-17T23:12:40.651Z,95.19
2023-04-17T23:15:11.116Z,94.94
2023-04-17T23:17:38.753Z,94.85
2023-04-17T23:20:07.632Z,94.63
2023-04-17T23:22:35.288Z,94.04
2023-04-17T23:25:02.864Z,94.21
2023-04-17T23:27:31.457Z,94.25
2023-04-17T23:29:59.904Z,95.65
2023-04-17T23:32:28.909Z,95.73
2023-04-17T23:34:56.468Z,95.82
2023-04-17T23:37:24.047Z,95.46
2023-04-17T23:39:51.673Z,95.87
2023-04-17T23:42:19.177Z,95.44
2023-04-17T23:44:46.696Z,95.66
2023-04-17T23:47:14.416Z,95.47
2023-04-17T23:49:43.306Z,95.44
2023-04-17T23:52:10.982Z,96.01
2023-04-17T23:54:38.611Z,96.03
2023-04-17T23:57:06.185Z,96.00
2023-04-17T23:59:33.869Z,96.89
